Time;durP1;ratioP1;P1;durP2;ratioP2;P2;SDS_P1;SDS_P2;PMS_P1;PMS_P2;Temp;Humidity;BMP_temperature;BMP_pressure;BME280_temperature;BME280_humidity;BME280_pressure;Samples;Min_cycle;Max_cycle;Signal;HPM_P1;HPM_P2
2022/05/07 00:00:55;;;;;;;9.00;5.60;;;;;;;10.25;31.04;101439.66;117265;1185;23904;-54
2022/05/07 00:03:25;;;;;;;10.80;5.30;;;;;;;10.29;31.02;101439.52;117276;1185;22085;-54
2022/05/07 00:05:55;;;;;;;12.90;5.80;;;;;;;10.26;30.89;101439.31;117045;1185;23592;-54
2022/05/07 00:08:23;;;;;;;10.20;5.40;;;;;;;10.22;30.97;101436.66;117322;1185;23568;-47
2022/05/07 00:10:52;;;;;;;11.10;5.30;;;;;;;10.18;31.02;101439.61;117080;1185;24169;-49
2022/05/07 00:13:21;;;;;;;10.80;5.70;;;;;;;10.15;31.14;101438.73;117333;1185;23474;-54
2022/05/07 00:18:38;;;;;;;11.70;6.10;;;;;;;10.10;31.22;101433.79;117106;1185;23439;-54
2022/05/07 00:21:08;;;;;;;12.40;6.50;;;;;;;10.07;31.27;101428.85;117323;1185;23485;-55
2022/05/07 00:23:37;;;;;;;10.70;5.70;;;;;;;10.04;31.35;101426.20;117336;1180;22926;-47
2022/05/07 00:26:05;;;;;;;12.00;6.30;;;;;;;10.00;31.34;101422.31;117074;1185;21856;-55
2022/05/07 00:28:36;;;;;;;10.30;6.40;;;;;;;9.96;31.32;101426.14;117046;1185;24172;-47
2022/05/07 00:31:05;;;;;;;13.50;5.90;;;;;;;9.92;31.37;101428.41;117266;1185;21850;-47
2022/05/07 00:33:34;;;;;;;13.30;6.30;;;;;;;9.89;31.50;101428.04;117117;1186;23545;-47
2022/05/07 00:36:03;;;;;;;10.30;5.50;;;;;;;9.87;31.47;101426.44;117427;1184;22885;-47
2022/05/07 00:38:32;;;;;;;12.10;6.10;;;;;;;9.86;31.58;101424.85;117383;1185;23471;-47
2022/05/07 00:41:00;;;;;;;11.20;6.10;;;;;;;9.86;31.48;101427.84;117256;1185;21984;-54
2022/05/07 00:43:40;;;;;;;11.40;6.70;;;;;;;9.84;31.55;101429.22;117327;1185;23439;-47
2022/05/07 00:46:09;;;;;;;10.50;5.40;;;;;;;9.82;31.71;101429.55;117263;1186;23584;-47
2022/05/07 00:48:38;;;;;;;10.20;5.80;;;;;;;9.79;31.74;101431.62;117040;1186;24175;-47
2022/05/07 00:53:54;;;;;;;12.50;5.70;;;;;;;9.70;31.94;101432.61;117283;1185;22147;-54
2022/05/07 00:56:23;;;;;;;10.20;5.80;;;;;;;9.68;31.80;101434.35;117294;1185;22915;-47
2022/05/07 00:58:52;;;;;;;12.20;6.40;;;;;;;9.65;31.84;101435.91;117250;1185;24302;-47
2022/05/07 01:01:21;;;;;;;13.70;5.80;;;;;;;9.51;32.01;101434.02;117292;1185;21931;-47
2022/05/07 01:03:50;;;;;;;13.40;5.90;;;;;;;9.43;31.97;101433.61;117403;1183;21820;-47
2022/05/07 01:06:20;;;;;;;10.60;5.50;;;;;;;9.32;31.99;101432.09;117354;1182;21837;-55
2022/05/07 01:08:49;;;;;;;11.20;6.00;;;;;;;9.24;32.04;101426.77;117383;1184;23551;-54
2022/05/07 01:11:18;;;;;;;11.90;6.00;;;;;;;9.15;32.17;101426.15;117050;1185;23551;-55
2022/05/07 01:13:49;;;;;;;11.20;6.00;;;;;;;9.04;32.15;101423.08;117107;1186;22368;-47
2022/05/07 01:16:17;;;;;;;10.60;6.20;;;;;;;9.00;32.29;101422.15;117081;1181;22919;-55
2022/05/07 01:18:46;;;;;;;10.80;6.20;;;;;;;8.98;32.21;101424.92;117300;1182;23550;-55
2022/05/07 01:21:17;;;;;;;11.70;5.90;;;;;;;8.93;32.31;101424.87;117322;1185;22303;-48
2022/05/07 01:23:47;;;;;;;10.20;6.20;;;;;;;8.89;32.33;101420.44;117279;1186;23691;-48
2022/05/07 01:26:20;;;;;;;12.20;6.60;;;;;;;8.84;32.36;101420.57;117263;1182;21840;-47
2022/05/07 01:28:50;;;;;;;9.40;5.60;;;;;;;8.76;32.31;101416.97;117312;1185;23471;-55
2022/05/07 01:31:18;;;;;;;9.70;5.70;;;;;;;8.72;32.51;101414.11;117461;1186;21859;-48
2022/05/07 01:33:48;;;;;;;9.60;6.00;;;;;;;8.80;32.49;101411.95;117330;1183;21862;-54
2022/05/07 01:36:19;;;;;;;13.00;6.90;;;;;;;8.74;32.51;101410.13;117358;1185;23551;-47
2022/05/07 01:38:48;;;;;;;10.50;5.80;;;;;;;8.69;32.61;101411.45;117280;1185;23442;-55
2022/05/07 01:41:17;;;;;;;11.70;6.00;;;;;;;8.64;32.76;101420.84;117313;1185;21889;-47
2022/05/07 01:43:46;;;;;;;10.50;6.20;;;;;;;8.61;32.56;101424.30;117079;1186;23470;-55
2022/05/07 01:49:01;;;;;;;10.10;5.30;;;;;;;8.56;32.64;101421.98;117233;1186;21863;-54
2022/05/07 01:51:29;;;;;;;11.10;6.50;;;;;;;8.56;32.92;101424.61;117304;1185;24152;-55
2022/05/07 01:53:58;;;;;;;10.70;5.80;;;;;;;8.55;32.96;101420.23;117293;1185;23594;-55
2022/05/07 01:56:26;;;;;;;13.30;5.90;;;;;;;8.54;32.91;101415.48;117363;1185;23553;-55
2022/05/07 01:58:54;;;;;;;11.40;6.50;;;;;;;8.55;32.97;101413.75;117293;1185;22909;-47
2022/05/07 02:01:24;;;;;;;12.30;6.20;;;;;;;8.49;32.96;101415.75;117337;1186;21848;-47
2022/05/07 02:03:53;;;;;;;;;;;;;;;8.47;32.90;101416.59;117085;1186;21823;-54
2022/05/07 02:06:24;;;;;;;11.90;6.30;;;;;;;8.44;33.03;101414.61;117287;1186;23547;-47
2022/05/07 02:08:54;;;;;;;12.20;6.00;;;;;;;8.44;33.10;101409.02;117315;1185;22925;-48
2022/05/07 02:11:25;;;;;;;9.30;5.90;;;;;;;8.47;32.89;101411.70;117324;1185;21912;-55
2022/05/07 02:13:54;;;;;;;11.10;5.60;;;;;;;8.51;33.15;101410.19;117329;1184;23443;-55
2022/05/07 02:16:23;;;;;;;11.70;5.80;;;;;;;8.44;33.02;101413.92;117282;1186;22894;-48
2022/05/07 02:18:51;;;;;;;12.50;5.70;;;;;;;8.40;33.25;101415.96;117320;1186;21848;-47
2022/05/07 02:21:21;;;;;;;11.10;5.90;;;;;;;8.38;33.19;101419.29;117044;1185;23554;-48
2022/05/07 02:23:49;;;;;;;10.70;6.10;;;;;;;8.35;33.22;101419.93;117049;1186;21888;-55
2022/05/07 02:26:18;;;;;;;16.50;6.90;;;;;;;8.32;33.41;101426.00;117402;1185;21858;-54
2022/05/07 02:28:48;;;;;;;17.00;6.20;;;;;;;8.29;33.39;101427.02;117303;1185;23573;-47
2022/05/07 02:31:16;;;;;;;12.00;6.10;;;;;;;8.26;33.40;101434.15;117083;1188;23452;-54
2022/05/07 02:33:45;;;;;;;11.30;6.00;;;;;;;8.24;33.36;101439.52;117321;1185;23446;-54
2022/05/07 02:36:16;;;;;;;9.90;6.30;;;;;;;8.24;33.65;101438.48;117103;1186;21854;-47
2022/05/07 02:38:45;;;;;;;9.50;5.80;;;;;;;8.26;33.72;101440.44;117172;1185;21850;-47
2022/05/07 02:44:02;;;;;;;18.30;6.70;;;;;;;8.28;33.88;101442.91;117806;1185;23526;-54
2022/05/07 02:46:31;;;;;;;16.80;6.70;;;;;;;8.26;33.82;101444.11;117383;1185;22852;-55
2022/05/07 02:49:01;;;;;;;13.50;7.30;;;;;;;8.31;33.96;101442.95;117326;1185;24716;-54
2022/05/07 02:51:31;;;;;;;11.10;5.80;;;;;;;8.41;34.04;101441.85;117367;1185;21849;-47
2022/05/07 02:53:59;;;;;;;12.80;5.50;;;;;;;8.42;33.84;101444.48;117050;1186;21957;-53
2022/05/07 02:56:27;;;;;;;11.20;5.80;;;;;;;8.42;34.02;101445.72;117352;1185;22825;-54
2022/05/07 02:58:57;;;;;;;13.90;6.90;;;;;;;8.43;34.04;101449.77;117303;1185;21918;-54
2022/05/07 03:01:25;;;;;;;11.40;6.60;;;;;;;8.42;33.97;101453.95;117373;1185;21850;-54
2022/05/07 03:03:54;;;;;;;13.20;6.00;;;;;;;8.36;34.04;101463.31;117347;1185;22613;-54
2022/05/07 03:06:23;;;;;;;11.50;6.10;;;;;;;8.29;34.09;101466.36;117333;1185;22221;-47
2022/05/07 03:08:52;;;;;;;13.70;6.00;;;;;;;8.23;34.13;101472.02;117348;1185;23473;-47
2022/05/07 03:11:20;;;;;;;12.50;6.00;;;;;;;8.21;34.28;101474.98;117366;1185;22919;-47
2022/05/07 03:13:49;;;;;;;11.80;6.30;;;;;;;8.23;34.27;101470.11;117399;1185;24140;-55
2022/05/07 03:16:17;;;;;;;15.80;6.20;;;;;;;8.25;34.27;101468.57;117332;1185;22999;-47
2022/05/07 03:18:46;;;;;;;40.90;8.10;;;;;;;8.27;34.28;101464.58;117321;1185;23481;-47
2022/05/07 03:21:14;;;;;;;24.70;6.60;;;;;;;8.31;34.59;101464.11;117341;1186;23583;-47
2022/05/07 03:23:44;;;;;;;12.70;6.70;;;;;;;8.35;34.68;101470.12;117300;1185;23459;-47
2022/05/07 03:26:13;;;;;;;20.80;6.10;;;;;;;8.42;34.72;101470.90;117104;1186;23452;-47
2022/05/07 03:28:41;;;;;;;17.10;7.00;;;;;;;8.50;34.73;101472.08;117338;1185;22962;-47
2022/05/07 03:31:10;;;;;;;12.70;5.90;;;;;;;8.58;34.98;101470.30;117320;1185;24149;-54
2022/05/07 03:33:39;;;;;;;15.20;6.20;;;;;;;8.66;35.04;101468.29;117369;1185;22872;-50
2022/05/07 03:36:09;;;;;;;14.50;5.90;;;;;;;8.80;35.28;101474.07;117346;1185;21888;-54
2022/05/07 03:38:37;;;;;;;16.10;6.40;;;;;;;8.93;35.10;101474.73;117347;1183;21848;-54
2022/05/07 03:41:06;;;;;;;15.00;6.50;;;;;;;9.03;35.37;101478.38;117303;1180;21855;-47
2022/05/07 03:43:36;;;;;;;14.60;6.00;;;;;;;9.12;35.28;101482.86;117353;1185;24292;-48
2022/05/07 03:46:04;;;;;;;12.70;6.30;;;;;;;9.23;35.42;101485.60;117063;1186;21849;-47
2022/05/07 03:48:33;;;;;;;14.20;6.30;;;;;;;9.36;35.57;101484.16;117347;1185;23455;-54
2022/05/07 03:51:01;;;;;;;13.00;6.50;;;;;;;9.50;35.65;101485.02;117312;1185;21848;-55
2022/05/07 03:53:30;;;;;;;24.00;7.80;;;;;;;9.64;35.83;101486.55;117285;1185;23582;-47
2022/05/07 03:56:07;;;;;;;16.20;6.70;;;;;;;9.85;35.98;101481.11;117291;1186;22931;-55
2022/05/07 03:58:36;;;;;;;14.80;6.80;;;;;;;10.10;36.03;101481.65;117329;1185;23448;-55
2022/05/07 04:01:14;;;;;;;17.40;6.50;;;;;;;10.29;36.12;101478.63;117305;1185;21852;-47
2022/05/07 04:03:44;;;;;;;27.50;8.10;;;;;;;10.48;36.21;101478.95;117366;1185;21908;-47
2022/05/07 04:06:12;;;;;;;15.90;6.70;;;;;;;10.64;36.34;101478.85;117411;1185;23631;-55
2022/05/07 04:08:41;;;;;;;19.40;7.20;;;;;;;10.79;36.31;101477.71;117023;1186;23466;-47
2022/05/07 04:11:12;;;;;;;11.80;6.50;;;;;;;10.93;36.30;101482.16;117291;1186;23548;-47
2022/05/07 04:13:40;;;;;;;30.80;8.60;;;;;;;11.06;36.31;101477.10;117332;1185;21850;-47
2022/05/07 04:16:09;;;;;;;18.80;7.50;;;;;;;11.21;36.59;101476.09;117078;1185;24138;-47
2022/05/07 04:18:37;;;;;;;16.70;7.10;;;;;;;11.38;36.52;101477.89;117074;1186;24270;-55
2022/05/07 04:21:05;;;;;;;13.00;7.30;;;;;;;11.56;36.80;101480.04;117345;1185;24149;-55
2022/05/07 04:23:35;;;;;;;13.70;7.40;;;;;;;11.73;36.85;101476.02;117326;1185;23472;-47
2022/05/07 04:26:04;;;;;;;15.60;7.70;;;;;;;11.93;37.05;101480.23;117307;1184;23548;-47
2022/05/07 04:28:33;;;;;;;13.90;7.40;;;;;;;12.13;37.05;101476.55;117077;1186;23328;-47
2022/05/07 04:31:01;;;;;;;14.10;6.70;;;;;;;12.34;37.15;101478.27;117296;1185;21855;-56
2022/05/07 04:33:30;;;;;;;15.40;7.30;;;;;;;12.57;37.23;101470.81;117354;1185;24242;-55
2022/05/07 04:35:59;;;;;;;19.90;8.00;;;;;;;12.82;37.35;101476.37;117332;1185;24155;-55
2022/05/07 04:38:28;;;;;;;10.30;6.20;;;;;;;13.05;37.50;101477.32;117305;1185;23451;-47
2022/05/07 04:40:57;;;;;;;13.80;6.50;;;;;;;13.26;37.45;101477.03;117051;1186;23448;-55
2022/05/07 04:43:26;;;;;;;11.20;6.40;;;;;;;13.46;37.25;101481.34;118224;1184;23444;-48
2022/05/07 04:45:54;;;;;;;10.30;6.10;;;;;;;13.66;37.37;101480.32;117529;1185;22836;-55
2022/05/07 04:48:24;;;;;;;9.30;5.90;;;;;;;13.84;37.34;101484.60;117096;1186;23372;-47
2022/05/07 04:50:53;;;;;;;13.40;6.80;;;;;;;14.04;37.33;101482.84;117304;1185;24258;-47
2022/05/07 04:53:22;;;;;;;11.80;6.00;;;;;;;14.29;37.35;101482.60;117479;1185;21850;-55
2022/05/07 04:55:50;;;;;;;9.70;5.40;;;;;;;14.44;37.33;101480.52;117104;1186;23551;-47
2022/05/07 04:58:21;;;;;;;8.40;4.50;;;;;;;14.69;37.38;101478.48;117024;1186;24170;-47
2022/05/07 05:00:49;;;;;;;;;;;;;;;14.88;37.45;101478.79;117061;1186;22172;-55
2022/05/07 05:03:20;;;;;;;7.50;3.60;;;;;;;15.08;37.49;101473.76;117294;1186;21849;-48
2022/05/07 05:05:48;;;;;;;7.20;3.50;;;;;;;15.28;37.40;101472.23;117306;1186;21890;-55
2022/05/07 05:08:17;;;;;;;7.00;2.50;;;;;;;15.49;37.31;101477.40;117087;1186;21859;-49
2022/05/07 05:10:45;;;;;;;6.20;2.30;;;;;;;15.71;37.21;101473.02;117252;1185;21841;-54
2022/05/07 05:13:15;;;;;;;7.40;1.80;;;;;;;15.92;37.03;101473.03;117280;1186;22915;-47
2022/05/07 05:15:47;;;;;;;4.50;1.80;;;;;;;16.18;36.91;101470.27;117068;1187;22929;-47
2022/05/07 05:18:16;;;;;;;3.40;1.80;;;;;;;16.38;36.59;101470.27;117040;1186;23550;-47
2022/05/07 05:20:44;;;;;;;3.60;1.30;;;;;;;16.53;36.49;101471.56;117066;1186;23568;-47
2022/05/07 05:23:12;;;;;;;8.50;1.70;;;;;;;16.67;36.28;101473.25;117033;1186;21852;-53
2022/05/07 05:25:45;;;;;;;4.70;1.30;;;;;;;16.78;36.14;101476.73;117016;1186;22630;-54
2022/05/07 05:28:14;;;;;;;5.30;1.50;;;;;;;16.91;36.06;101476.66;117240;1185;22927;-47
2022/05/07 05:30:42;;;;;;;4.10;1.50;;;;;;;17.01;36.05;101479.67;117107;1186;24169;-47
2022/05/07 05:33:10;;;;;;;5.70;1.40;;;;;;;17.10;35.91;101479.13;117277;1186;24151;-54
2022/05/07 05:35:41;;;;;;;4.00;1.40;;;;;;;17.23;35.98;101482.36;117250;1186;21840;-47
2022/05/07 05:38:09;;;;;;;8.70;1.90;;;;;;;17.39;35.74;101484.67;117313;1186;22017;-47
2022/05/07 05:40:37;;;;;;;4.90;1.60;;;;;;;17.48;35.59;101485.17;117281;1186;21859;-47
2022/05/07 05:43:06;;;;;;;3.30;1.50;;;;;;;17.54;35.66;101485.74;117077;1186;23472;-54
2022/05/07 05:45:35;;;;;;;3.70;1.90;;;;;;;17.65;35.57;101481.39;117051;1187;23472;-47
2022/05/07 05:48:05;;;;;;;3.50;1.70;;;;;;;17.82;35.59;101479.73;117328;1186;23551;-54
2022/05/07 05:50:33;;;;;;;3.70;1.70;;;;;;;17.99;35.58;101482.52;117043;1186;21843;-54
2022/05/07 05:53:02;;;;;;;3.40;1.50;;;;;;;18.11;35.43;101485.98;117164;1186;23475;-47
2022/05/07 05:55:31;;;;;;;3.10;2.10;;;;;;;18.19;35.32;101483.27;117080;1187;23553;-54
2022/05/07 05:58:00;;;;;;;9.40;1.90;;;;;;;18.29;35.46;101478.73;117301;1185;23501;-48
2022/05/07 06:00:29;;;;;;;4.10;1.50;;;;;;;18.52;35.47;101478.29;117342;1185;22929;-48
2022/05/07 06:03:00;;;;;;;8.30;2.00;;;;;;;18.80;35.38;101482.12;117323;1186;24248;-55
2022/05/07 06:05:29;;;;;;;3.10;1.40;;;;;;;18.99;35.22;101483.91;117067;1186;23737;-55
2022/05/07 06:07:58;;;;;;;5.30;1.40;;;;;;;19.06;34.91;101487.42;117318;1185;21844;-47
2022/05/07 06:10:28;;;;;;;5.60;1.40;;;;;;;19.08;34.81;101490.76;117259;1186;21897;-48
2022/05/07 06:12:57;;;;;;;2.30;1.20;;;;;;;19.13;34.81;101491.50;117371;1185;21844;-55
2022/05/07 06:15:26;;;;;;;2.30;1.20;;;;;;;19.19;34.80;101487.58;117246;1185;22800;-55
2022/05/07 06:17:55;;;;;;;5.00;1.60;;;;;;;19.35;34.87;101487.62;117335;1185;22614;-55
2022/05/07 06:20:24;;;;;;;3.30;1.20;;;;;;;19.51;34.83;101488.02;117330;1185;21821;-48
2022/05/07 06:22:52;;;;;;;7.90;1.40;;;;;;;19.62;34.60;101487.30;117041;1186;23514;-48
2022/05/07 06:28:08;;;;;;;3.40;1.30;;;;;;;19.75;34.36;101484.02;117265;1186;24173;-56
2022/05/07 06:30:37;;;;;;;4.50;1.40;;;;;;;19.86;34.26;101487.23;117088;1186;24226;-48
2022/05/07 06:33:05;;;;;;;3.10;1.60;;;;;;;19.89;34.32;101487.86;117404;1185;23538;-56
2022/05/07 06:35:34;;;;;;;4.20;1.50;;;;;;;20.00;34.38;101486.95;117097;1186;21893;-48
2022/05/07 06:38:03;;;;;;;3.60;1.40;;;;;;;20.10;34.15;101491.62;117067;1183;22911;-48
2022/05/07 06:40:32;;;;;;;4.40;1.40;;;;;;;20.10;34.01;101494.64;117200;1186;22803;-48
2022/05/07 06:43:02;;;;;;;4.50;1.80;;;;;;;20.13;34.01;101493.83;117270;1184;21886;-47
2022/05/07 06:45:31;;;;;;;7.90;1.90;;;;;;;20.23;33.96;101494.89;117331;1185;24152;-47
2022/05/07 06:48:00;;;;;;;4.10;1.70;;;;;;;20.41;34.13;101492.83;117495;1184;23036;-48
2022/05/07 06:50:31;;;;;;;5.40;1.90;;;;;;;20.63;34.02;101491.00;117312;1185;21867;-47
2022/05/07 06:53:00;;;;;;;;;;;;;;;20.74;33.72;101490.58;117076;1185;22925;-54
2022/05/07 06:55:33;;;;;;;5.90;1.80;;;;;;;20.72;33.51;101495.99;117315;1186;24169;-55
2022/05/07 06:58:01;;;;;;;3.10;1.80;;;;;;;20.73;33.41;101499.71;117335;1186;24171;-55
2022/05/07 07:00:50;;;;;;;5.10;1.60;;;;;;;20.70;33.27;101497.86;117242;1186;22898;-55
2022/05/07 07:03:19;;;;;;;6.50;1.80;;;;;;;20.76;33.40;101495.89;117305;1185;23538;-47
2022/05/07 07:05:48;;;;;;;3.50;1.50;;;;;;;20.88;33.27;101495.30;117143;1186;22629;-47
2022/05/07 07:08:17;;;;;;;5.00;2.00;;;;;;;21.03;33.51;101494.70;117154;1186;23652;-55
2022/05/07 07:10:48;;;;;;;6.50;2.00;;;;;;;21.35;33.38;101499.00;117490;1185;22623;-48
2022/05/07 07:13:17;;;;;;;5.00;1.60;;;;;;;21.40;32.93;101494.50;117148;1185;23574;-48
2022/05/07 07:15:48;;;;;;;7.30;1.60;;;;;;;21.30;32.79;101493.67;117282;1185;23449;-47
2022/05/07 07:18:18;;;;;;;5.90;1.60;;;;;;;21.29;32.92;101497.79;117301;1185;21853;-48
2022/05/07 07:20:49;;;;;;;;;;;;;;;21.49;32.88;101494.50;117249;1186;21894;-48
2022/05/07 07:23:17;;;;;;;3.80;1.60;;;;;;;21.59;32.76;101494.82;117336;1185;22924;-48
2022/05/07 07:25:46;;;;;;;4.60;2.00;;;;;;;21.69;32.73;101500.31;117322;1186;24170;-48
2022/05/07 07:28:15;;;;;;;5.30;1.60;;;;;;;21.80;32.63;101498.98;117392;1184;23646;-55
2022/05/07 07:30:43;;;;;;;5.60;2.00;;;;;;;21.90;32.55;101496.64;117332;1185;21872;-48
2022/05/07 07:33:14;;;;;;;5.60;1.80;;;;;;;22.01;32.69;101494.02;117286;1185;24289;-55
2022/05/07 07:35:44;;;;;;;5.50;1.50;;;;;;;22.33;32.97;101493.36;117215;1187;23550;-47
2022/05/07 07:38:13;;;;;;;4.60;1.80;;;;;;;22.68;32.74;101492.18;117400;1185;21914;-48
2022/05/07 07:40:43;;;;;;;4.40;1.80;;;;;;;22.79;32.46;101490.78;117162;1185;22777;-55
2022/05/07 07:43:12;;;;;;;3.60;1.70;;;;;;;22.84;32.36;101487.86;117111;1187;21847;-56
2022/05/07 07:48:30;;;;;;;9.30;2.00;;;;;;;23.48;32.82;101484.15;117229;1185;23643;-56
2022/05/07 07:50:58;;;;;;;6.30;1.80;;;;;;;23.86;32.93;101485.31;117344;1186;23055;-55
2022/05/07 07:53:27;;;;;;;4.00;1.60;;;;;;;24.33;33.01;101486.69;117364;1185;21912;-55
2022/05/07 07:55:55;;;;;;;5.40;1.80;;;;;;;24.77;32.71;101486.89;117044;1186;23263;-55
2022/05/07 07:58:24;;;;;;;6.00;1.80;;;;;;;24.88;32.11;101489.54;117304;1185;21850;-48
2022/05/07 08:00:53;;;;;;;6.10;2.00;;;;;;;24.85;32.12;101489.52;117086;1181;23002;-55
2022/05/07 08:03:22;;;;;;;7.10;1.60;;;;;;;25.07;32.18;101488.30;117248;1186;21875;-56
2022/05/07 08:05:52;;;;;;;6.40;1.60;;;;;;;25.19;31.74;101486.02;117045;1185;21891;-57
2022/05/07 08:13:55;;;;;;;7.70;1.50;;;;;;;25.02;31.58;101488.79;117318;1185;22643;-55
2022/05/07 08:16:24;;;;;;;6.70;2.40;;;;;;;25.25;31.77;101488.92;117276;1185;22828;-57
2022/05/07 08:18:53;;;;;;;4.40;1.50;;;;;;;25.75;31.91;101490.38;117170;1188;22199;-57
2022/05/07 08:21:21;;;;;;;2.90;1.50;;;;;;;26.36;31.88;101485.17;117107;1185;23566;-49
2022/05/07 08:23:50;;;;;;;8.20;2.80;;;;;;;26.68;31.09;101484.29;117306;1186;22998;-48
2022/05/07 08:26:19;;;;;;;4.70;1.60;;;;;;;26.42;30.75;101481.06;117326;1185;21850;-55
2022/05/07 08:28:51;;;;;;;4.30;1.70;;;;;;;26.22;30.50;101481.73;117401;1186;21855;-56
2022/05/07 08:31:26;;;;;;;5.90;1.60;;;;;;;26.00;30.43;101478.91;117184;1185;21931;-55
2022/05/07 08:34:00;;;;;;;3.90;1.80;;;;;;;25.94;30.75;101478.67;117018;1189;22179;-56
2022/05/07 08:36:32;;;;;;;3.10;1.70;;;;;;;26.01;30.47;101478.83;117138;1185;22105;-57
2022/05/07 08:39:00;;;;;;;5.50;1.90;;;;;;;25.90;29.96;101478.92;117318;1185;23531;-56
2022/05/07 08:41:29;;;;;;;4.40;1.40;;;;;;;25.66;30.06;101483.39;117308;1185;23712;-50
2022/05/07 08:43:57;;;;;;;3.90;1.70;;;;;;;25.74;30.31;101484.35;117007;1187;23458;-56
2022/05/07 08:46:26;;;;;;;52.00;6.20;;;;;;;26.07;30.60;101480.95;117349;1185;21857;-50
2022/05/07 08:48:56;;;;;;;8.70;2.00;;;;;;;26.48;30.36;101484.11;117149;1185;22542;-56
2022/05/07 08:51:24;;;;;;;4.30;2.20;;;;;;;26.58;30.22;101480.38;117163;1185;22014;-50
2022/05/07 08:53:53;;;;;;;12.40;2.00;;;;;;;26.77;30.12;101478.35;117118;1187;22617;-55
2022/05/07 08:56:24;;;;;;;8.10;1.80;;;;;;;26.96;30.02;101475.15;117118;1188;21860;-55
2022/05/07 08:58:53;;;;;;;6.10;1.70;;;;;;;27.18;30.20;101471.91;117014;1187;21854;-55
2022/05/07 09:01:21;;;;;;;5.80;1.70;;;;;;;27.60;30.46;101466.55;116985;1187;21851;-56
2022/05/07 09:03:50;;;;;;;6.20;2.20;;;;;;;27.92;30.14;101461.83;117032;1186;21919;-56
2022/05/07 09:06:24;;;;;;;7.00;2.00;;;;;;;27.98;29.73;101461.82;116968;1187;21889;-55
2022/05/07 09:08:56;;;;;;;4.10;1.60;;;;;;;27.92;29.67;101463.30;117111;1186;21843;-49
2022/05/07 09:11:26;;;;;;;5.40;1.70;;;;;;;28.01;29.52;101458.54;117706;1186;23885;-49
2022/05/07 09:14:04;;;;;;;6.80;1.80;;;;;;;28.04;29.38;101458.16;117066;1186;21854;-56
2022/05/07 09:16:40;;;;;;;3.10;1.60;;;;;;;28.13;29.38;101455.18;117064;1186;23557;-49
2022/05/07 09:19:23;;;;;;;4.20;1.70;;;;;;;28.12;28.94;101450.73;117041;1183;21949;-56
2022/05/07 09:21:55;;;;;;;5.10;1.70;;;;;;;28.05;29.13;101453.17;117091;1186;21855;-50
2022/05/07 09:24:23;;;;;;;3.90;1.80;;;;;;;28.14;28.70;101450.81;116978;1183;22929;-50
2022/05/07 09:26:51;;;;;;;5.70;1.80;;;;;;;27.86;28.55;101446.37;117119;1183;23558;-56
2022/05/07 09:29:19;;;;;;;4.60;2.00;;;;;;;27.91;28.92;101448.41;116981;1186;22956;-49
2022/05/07 09:31:49;;;;;;;4.30;1.70;;;;;;;28.20;29.10;101448.19;116962;1187;21843;-50
2022/05/07 09:37:16;;;;;;;5.80;1.70;;;;;;;29.10;29.13;101440.02;117023;1186;21853;-56
2022/05/07 09:39:52;;;;;;;3.50;1.50;;;;;;;29.57;29.10;101438.73;117065;1187;23541;-56
2022/05/07 09:42:22;;;;;;;4.10;1.70;;;;;;;29.91;28.93;101435.23;117026;1186;21915;-50
2022/05/07 09:44:52;;;;;;;5.10;1.50;;;;;;;30.13;28.96;101435.54;117090;1186;21853;-56
2022/05/07 09:47:20;;;;;;;4.40;1.50;;;;;;;30.35;28.73;101429.45;116936;1187;21896;-50
2022/05/07 09:52:36;;;;;;;5.90;1.70;;;;;;;30.75;28.58;101428.43;117094;1186;22839;-56
2022/05/07 09:57:55;;;;;;;4.50;1.80;;;;;;;31.23;28.49;101419.44;117035;1187;21851;-56
2022/05/07 10:00:24;;;;;;;4.60;1.80;;;;;;;31.36;28.30;101420.22;117162;1186;23566;-57
2022/05/07 10:03:06;;;;;;;4.80;2.80;;;;;;;31.44;28.02;101420.83;117113;1188;22502;-49
2022/05/07 10:06:22;;;;;;;6.50;2.10;;;;;;;31.55;27.96;101419.86;117028;1187;21842;-50
2022/05/07 10:09:15;;;;;;;6.70;2.20;;;;;;;31.75;27.74;101422.55;116944;1188;21882;-56
2022/05/07 10:11:44;;;;;;;8.50;2.20;;;;;;;31.85;27.54;101420.39;117052;1187;23564;-56
2022/05/07 10:14:13;;;;;;;7.20;2.40;;;;;;;31.90;27.18;101416.23;116981;1186;23554;-50
2022/05/07 10:16:42;;;;;;;5.60;2.10;;;;;;;31.59;26.86;101416.27;117168;1186;23555;-55
2022/05/07 10:19:10;;;;;;;6.00;2.10;;;;;;;31.61;27.11;101407.15;117175;1186;23592;-50
2022/05/07 10:21:40;;;;;;;4.30;2.30;;;;;;;31.72;27.09;101401.23;117213;1185;22739;-57
2022/05/07 10:24:09;;;;;;;5.50;2.10;;;;;;;31.82;26.76;101401.42;117291;1186;21852;-49
2022/05/07 10:26:42;;;;;;;4.50;2.30;;;;;;;31.68;26.54;101401.73;117160;1185;23552;-55
2022/05/07 10:29:25;;;;;;;8.80;2.20;;;;;;;31.61;26.49;101401.17;117316;1185;23682;-55
2022/05/07 10:32:03;;;;;;;9.10;2.30;;;;;;;31.82;26.67;101401.30;117328;1185;22898;-55
2022/05/07 10:34:33;;;;;;;9.10;3.00;;;;;;;32.05;26.68;101399.61;117351;1186;21853;-55
2022/05/07 10:37:03;;;;;;;4.30;2.30;;;;;;;32.28;26.61;101401.63;117342;1185;22841;-48
2022/05/07 10:39:31;;;;;;;5.70;2.40;;;;;;;32.29;26.27;101399.34;117319;1185;21848;-49
2022/05/07 10:42:01;;;;;;;4.80;2.60;;;;;;;32.08;25.93;101400.11;117378;1185;22864;-55
2022/05/07 10:44:31;;;;;;;5.30;2.30;;;;;;;31.74;25.61;101399.40;117240;1186;21851;-55
2022/05/07 10:47:29;;;;;;;4.30;2.20;;;;;;;31.40;25.56;101398.81;117258;1185;21905;-55
2022/05/07 10:50:06;;;;;;;7.40;2.40;;;;;;;31.14;25.53;101385.80;117230;1185;23554;-56
2022/05/07 10:52:36;;;;;;;6.40;2.30;;;;;;;31.10;25.86;101386.30;117911;1186;23579;-55
2022/05/07 10:55:12;;;;;;;3.00;2.00;;;;;;;31.33;25.71;101388.90;117313;1185;22925;-56
2022/05/07 10:57:47;;;;;;;6.40;2.40;;;;;;;31.12;25.00;101385.06;117345;1185;23557;-50
2022/05/07 11:00:17;;;;;;;3.90;2.10;;;;;;;30.45;24.51;101389.71;117196;1188;22924;-49
2022/05/07 11:02:49;;;;;;;5.10;1.80;;;;;;;29.63;24.28;101390.52;117083;1186;22917;-56
2022/05/07 11:05:31;;;;;;;6.20;2.40;;;;;;;29.03;24.76;101384.88;117141;1185;21893;-56
2022/05/07 11:08:02;;;;;;;4.40;2.60;;;;;;;28.98;24.95;101383.61;117232;1186;23450;-56
2022/05/07 11:10:30;;;;;;;6.50;2.70;;;;;;;29.43;25.48;101380.64;117314;1185;21864;-57
2022/05/07 11:13:09;;;;;;;6.40;2.20;;;;;;;30.04;25.69;101378.53;117323;1185;21859;-57
2022/05/07 11:15:37;;;;;;;5.30;1.90;;;;;;;30.65;25.73;101373.61;117381;1186;21977;-57
2022/05/07 11:18:15;;;;;;;7.00;2.40;;;;;;;31.25;25.74;101367.10;117388;1185;22616;-57
2022/05/07 11:20:43;;;;;;;6.00;2.10;;;;;;;31.56;25.36;101361.15;117309;1185;22841;-57
2022/05/07 11:23:13;;;;;;;4.50;2.10;;;;;;;31.63;24.94;101359.55;117075;1185;23673;-57
2022/05/07 11:25:45;;;;;;;4.20;1.70;;;;;;;31.41;24.81;101359.19;117267;1186;21843;-57
2022/05/07 11:28:14;;;;;;;4.90;2.10;;;;;;;31.31;24.92;101358.29;117045;1185;23544;-57
2022/05/07 11:30:53;;;;;;;;;;;;;;;31.00;24.39;101357.02;117288;1185;23557;-57
2022/05/07 11:33:25;;;;;;;7.50;1.90;;;;;;;30.61;24.76;101353.69;117240;1181;22948;-56
2022/05/07 11:36:06;;;;;;;4.30;2.20;;;;;;;30.78;24.89;101352.10;117014;1186;23648;-50
2022/05/07 11:38:46;;;;;;;6.40;1.80;;;;;;;30.99;24.95;101347.09;117348;1185;24190;-57
2022/05/07 11:41:15;;;;;;;3.30;1.90;;;;;;;31.11;24.66;101344.13;117064;1187;23830;-57
2022/05/07 11:46:52;;;;;;;5.90;1.90;;;;;;;30.60;24.55;101334.58;117290;1185;22642;-57
2022/05/07 11:49:46;;;;;;;4.80;1.90;;;;;;;30.99;24.87;101330.42;117260;1185;21892;-57
2022/05/07 11:52:15;;;;;;;6.30;2.10;;;;;;;31.40;24.61;101326.27;117194;1185;23564;-57
2022/05/07 11:54:50;;;;;;;5.10;1.50;;;;;;;31.65;24.84;101319.95;117361;1185;23718;-57
2022/05/07 11:57:31;;;;;;;5.40;1.70;;;;;;;32.14;25.01;101317.02;117474;1185;22799;-50
2022/05/07 12:00:15;;;;;;;7.00;1.90;;;;;;;32.66;25.05;101309.84;117286;1185;22192;-57
2022/05/07 12:03:03;;;;;;;3.40;1.40;;;;;;;33.14;25.08;101302.88;117293;1186;24009;-58
2022/05/07 12:05:48;;;;;;;6.70;1.50;;;;;;;33.60;25.23;101301.84;117350;1185;24226;-50